Time;durP1;ratioP1;P1;durP2;ratioP2;P2;SDS_P1;SDS_P2;PMS_P1;PMS_P2;Temp;Humidity;BMP_temperature;BMP_pressure;BME280_temperature;BME280_humidity;BME280_pressure;Samples;Min_cycle;Max_cycle;Signal;HPM_P1;HPM_P2
2022/01/01 00:00:44;;;;;;;0.00;0.00;;;12.60;99.90;;;;;;4931527;29;20216;-68
2022/01/01 00:03:14;;;;;;;0.00;0.00;;;12.60;99.90;;;;;;4930879;29;20227;-68
2022/01/01 00:05:41;;;;;;;0.00;0.00;;;12.70;99.90;;;;;;4929693;29;20701;-70
2022/01/01 00:08:11;;;;;;;0.00;0.00;;;12.60;99.90;;;;;;4931982;29;20228;-68
2022/01/01 00:10:40;;;;;;;0.00;0.00;;;12.60;99.90;;;;;;4931694;29;20257;-70
2022/01/01 00:13:07;;;;;;;0.00;0.00;;;12.60;99.90;;;;;;4929729;29;20230;-68
2022/01/01 00:15:34;;;;;;;0.00;0.00;;;12.70;99.90;;;;;;4928120;29;20278;-70
2022/01/01 00:18:01;;;;;;;0.00;0.00;;;12.70;99.90;;;;;;4933216;28;20212;-68
2022/01/01 00:20:30;;;;;;;0.00;0.00;;;12.70;99.90;;;;;;4934519;29;20206;-68
2022/01/01 00:22:57;;;;;;;0.00;0.00;;;12.70;99.90;;;;;;4933546;29;20206;-68
2022/01/01 00:25:28;;;;;;;0.00;0.00;;;12.70;99.90;;;;;;4931553;29;20195;-69
2022/01/01 00:27:55;;;;;;;0.00;0.00;;;12.70;99.90;;;;;;4929379;29;20223;-68
2022/01/01 00:30:22;;;;;;;0.00;0.00;;;12.70;99.90;;;;;;4924340;29;20203;-68
2022/01/01 00:32:49;;;;;;;0.00;0.00;;;12.70;99.90;;;;;;4925644;29;20230;-68
2022/01/01 00:35:16;;;;;;;0.00;0.00;;;12.70;99.90;;;;;;4927829;29;20222;-68
2022/01/01 00:37:44;;;;;;;0.00;0.00;;;12.70;99.90;;;;;;4933522;28;20264;-68
2022/01/01 00:40:12;;;;;;;0.00;0.00;;;12.70;99.90;;;;;;4933224;29;20216;-68
2022/01/01 00:42:39;;;;;;;0.00;0.00;;;12.70;99.90;;;;;;4942638;28;20239;-68
2022/01/01 00:45:07;;;;;;;0.00;0.00;;;12.70;99.90;;;;;;4927971;29;20203;-68
2022/01/01 00:47:34;;;;;;;0.00;0.00;;;12.70;99.90;;;;;;4930610;29;20203;-68
2022/01/01 00:50:01;;;;;;;0.00;0.00;;;12.70;99.90;;;;;;4922872;29;20661;-68
2022/01/01 00:52:28;;;;;;;0.00;0.00;;;12.70;99.90;;;;;;4925920;29;20227;-68
2022/01/01 00:54:57;;;;;;;0.00;0.00;;;12.70;99.90;;;;;;4930009;29;20651;-69
2022/01/01 00:57:24;;;;;;;0.00;0.00;;;12.70;99.90;;;;;;4926921;29;20217;-67
2022/01/01 00:59:51;;;;;;;0.00;0.00;;;12.70;99.90;;;;;;4933912;29;20254;-68
2022/01/01 01:02:19;;;;;;;0.00;0.00;;;12.60;99.90;;;;;;4927457;29;20233;-69
2022/01/01 01:04:46;;;;;;;0.00;0.00;;;12.60;99.90;;;;;;4928046;29;20222;-68
2022/01/01 01:07:13;;;;;;;0.00;0.00;;;12.60;99.90;;;;;;4927482;29;20207;-68
2022/01/01 01:09:40;;;;;;;0.00;0.00;;;12.60;99.90;;;;;;4927415;29;20220;-68
2022/01/01 01:12:09;;;;;;;0.00;0.00;;;12.60;99.90;;;;;;4927918;29;20223;-68
2022/01/01 01:14:40;;;;;;;0.00;0.00;;;12.60;99.90;;;;;;4925328;29;20227;-69
2022/01/01 01:17:08;;;;;;;0.00;0.00;;;12.60;99.90;;;;;;4926220;29;20215;-68
2022/01/01 01:19:35;;;;;;;0.00;0.00;;;12.60;99.90;;;;;;4927970;29;20208;-68
2022/01/01 01:22:02;;;;;;;0.10;0.10;;;12.60;99.90;;;;;;4921645;29;20227;-68
2022/01/01 01:24:29;;;;;;;0.00;0.00;;;12.60;99.90;;;;;;4927610;29;20262;-68
2022/01/01 01:27:00;;;;;;;0.10;0.10;;;12.70;99.90;;;;;;4926272;29;20294;-69
2022/01/01 01:29:30;;;;;;;0.00;0.00;;;12.70;99.90;;;;;;4927274;29;20207;-68
2022/01/01 01:31:57;;;;;;;0.00;0.00;;;12.70;99.90;;;;;;4925000;29;20223;-68
2022/01/01 01:34:24;;;;;;;0.00;0.00;;;12.70;99.90;;;;;;4927022;29;20274;-68
2022/01/01 01:36:51;;;;;;;0.00;0.00;;;12.70;99.90;;;;;;4927535;29;20334;-68
2022/01/01 01:39:21;;;;;;;0.07;0.07;;;12.70;99.90;;;;;;4928659;29;20279;-68
2022/01/01 01:41:50;;;;;;;0.00;0.00;;;12.70;99.90;;;;;;4927398;29;20299;-68
2022/01/01 01:44:25;;;;;;;0.00;0.00;;;12.70;99.90;;;;;;4927986;29;20270;-68
2022/01/01 01:46:53;;;;;;;0.00;0.00;;;12.70;99.90;;;;;;4929003;29;20207;-68
2022/01/01 01:49:21;;;;;;;0.10;0.10;;;12.70;99.90;;;;;;4927309;29;20207;-67
2022/01/01 01:51:49;;;;;;;0.00;0.00;;;12.70;99.90;;;;;;4927315;29;20227;-68
2022/01/01 01:54:16;;;;;;;0.00;0.00;;;12.70;99.90;;;;;;4929449;29;20504;-68
2022/01/01 01:56:45;;;;;;;0.00;0.00;;;12.70;99.90;;;;;;4932225;29;20210;-68
2022/01/01 01:59:12;;;;;;;0.00;0.00;;;12.70;99.90;;;;;;4930794;29;20203;-68
2022/01/01 02:01:39;;;;;;;0.00;0.00;;;12.70;99.90;;;;;;4928249;29;20236;-68
2022/01/01 02:04:07;;;;;;;0.00;0.00;;;12.70;99.90;;;;;;4928657;29;20227;-68
2022/01/01 02:06:35;;;;;;;0.00;0.00;;;12.60;99.90;;;;;;4930023;29;20653;-69
2022/01/01 02:09:02;;;;;;;0.00;0.00;;;12.70;99.90;;;;;;4928345;29;20369;-68
2022/01/01 02:11:30;;;;;;;0.00;0.00;;;12.70;99.90;;;;;;4933437;29;20271;-68
2022/01/01 02:14:09;;;;;;;0.00;0.00;;;12.60;99.90;;;;;;4931453;29;20203;-68
2022/01/01 02:16:55;;;;;;;0.00;0.00;;;12.60;99.90;;;;;;4927911;29;20275;-69
2022/01/01 02:19:25;;;;;;;0.00;0.00;;;12.60;99.90;;;;;;4924948;29;20213;-68
2022/01/01 02:21:57;;;;;;;0.00;0.00;;;12.60;99.90;;;;;;4931367;29;20278;-68
2022/01/01 02:24:25;;;;;;;0.00;0.00;;;12.60;99.90;;;;;;4926688;29;20207;-69
2022/01/01 02:26:53;;;;;;;0.00;0.00;;;12.60;99.90;;;;;;4929649;29;20207;-68
2022/01/01 02:29:20;;;;;;;0.00;0.00;;;12.60;99.90;;;;;;4924181;29;20271;-69
2022/01/01 02:31:50;;;;;;;0.00;0.00;;;12.60;99.90;;;;;;4928214;29;20230;-68
2022/01/01 02:34:18;;;;;;;0.00;0.00;;;12.60;99.90;;;;;;4931474;29;20296;-68
2022/01/01 02:36:45;;;;;;;0.00;0.00;;;12.50;99.90;;;;;;4931269;29;20218;-68
2022/01/01 02:39:17;;;;;;;0.00;0.00;;;12.60;99.90;;;;;;4929530;29;20203;-68
2022/01/01 02:41:45;;;;;;;0.00;0.00;;;12.50;99.90;;;;;;4927107;29;20231;-68
2022/01/01 02:44:13;;;;;;;0.07;0.07;;;12.50;99.90;;;;;;4930365;29;20204;-68
2022/01/01 02:46:40;;;;;;;0.00;0.00;;;12.50;99.90;;;;;;4929698;29;20200;-69
2022/01/01 02:49:06;;;;;;;0.00;0.00;;;12.50;99.90;;;;;;4931015;28;20569;-68
2022/01/01 02:51:34;;;;;;;0.00;0.00;;;12.50;99.90;;;;;;4929180;29;20231;-68
2022/01/01 02:54:01;;;;;;;0.00;0.00;;;12.50;99.90;;;;;;4930384;29;20206;-68
2022/01/01 02:56:29;;;;;;;0.00;0.00;;;12.50;99.90;;;;;;4931898;29;20209;-68
2022/01/01 02:58:56;;;;;;;0.00;0.00;;;12.50;99.90;;;;;;4930502;29;20302;-68
2022/01/01 03:01:23;;;;;;;0.00;0.00;;;12.50;99.90;;;;;;4928428;29;20230;-68
2022/01/01 03:03:50;;;;;;;0.00;0.00;;;12.60;99.90;;;;;;4932486;28;20259;-68
2022/01/01 03:06:19;;;;;;;0.00;0.00;;;12.50;99.90;;;;;;4924337;29;20270;-68
2022/01/01 03:08:48;;;;;;;0.00;0.00;;;12.50;99.90;;;;;;4930706;29;20627;-68
2022/01/01 03:11:16;;;;;;;0.00;0.00;;;12.50;99.90;;;;;;4929701;29;20245;-68
2022/01/01 03:13:44;;;;;;;0.00;0.00;;;12.50;99.90;;;;;;4928366;29;20689;-68
2022/01/01 03:16:12;;;;;;;0.00;0.00;;;12.50;99.90;;;;;;4929519;29;20241;-68
2022/01/01 03:18:39;;;;;;;0.00;0.00;;;12.50;99.90;;;;;;4930363;29;20211;-68
2022/01/01 03:21:07;;;;;;;0.03;0.03;;;12.50;99.90;;;;;;4931924;29;20250;-68
2022/01/01 03:23:35;;;;;;;0.00;0.00;;;12.50;99.90;;;;;;4927809;29;20270;-68
2022/01/01 03:26:02;;;;;;;0.00;0.00;;;12.50;99.90;;;;;;4929730;29;20224;-68
2022/01/01 03:28:29;;;;;;;0.00;0.00;;;12.50;99.90;;;;;;4927978;29;20227;-68
2022/01/01 03:30:58;;;;;;;0.00;0.00;;;12.50;99.90;;;;;;4928920;29;20776;-68
2022/01/01 03:33:25;;;;;;;0.00;0.00;;;12.50;99.90;;;;;;4923790;29;20203;-68
2022/01/01 03:35:53;;;;;;;0.00;0.00;;;12.50;99.90;;;;;;4928529;29;20223;-68
2022/01/01 03:38:20;;;;;;;0.00;0.00;;;12.50;99.90;;;;;;4927627;29;20199;-68
2022/01/01 03:40:46;;;;;;;0.00;0.00;;;12.50;99.90;;;;;;4937292;28;20223;-69
2022/01/01 03:43:13;;;;;;;0.00;0.00;;;12.50;99.90;;;;;;4928483;29;20267;-68
2022/01/01 03:45:40;;;;;;;0.00;0.00;;;12.50;99.90;;;;;;4927989;29;20195;-68
2022/01/01 03:48:09;;;;;;;0.00;0.00;;;12.50;99.90;;;;;;4928436;29;20203;-68
2022/01/01 03:50:36;;;;;;;0.00;0.00;;;12.50;99.90;;;;;;4928166;29;20203;-68
2022/01/01 03:53:03;;;;;;;0.00;0.00;;;12.50;99.90;;;;;;4929743;29;20207;-68
2022/01/01 03:55:30;;;;;;;0.00;0.00;;;12.50;99.90;;;;;;4922510;29;20229;-68
2022/01/01 03:57:57;;;;;;;0.00;0.00;;;12.50;99.90;;;;;;4924032;29;20207;-68
2022/01/01 04:00:24;;;;;;;0.00;0.00;;;12.50;99.90;;;;;;4929566;29;20294;-68
2022/01/01 04:02:51;;;;;;;0.10;0.10;;;12.50;99.90;;;;;;4929500;29;20207;-68
2022/01/01 04:05:19;;;;;;;0.00;0.00;;;12.50;99.90;;;;;;4923331;29;20195;-68
2022/01/01 04:07:47;;;;;;;0.00;0.00;;;12.50;99.90;;;;;;4930230;29;20211;-68
2022/01/01 04:10:14;;;;;;;0.00;0.00;;;12.50;99.90;;;;;;4926898;29;20670;-70
2022/01/01 04:12:41;;;;;;;0.00;0.00;;;12.50;99.90;;;;;;4927970;29;20227;-69
2022/01/01 04:15:08;;;;;;;0.00;0.00;;;12.50;99.90;;;;;;4928975;29;20215;-69
2022/01/01 04:17:37;;;;;;;0.10;0.10;;;12.50;99.90;;;;;;4926472;29;20327;-70
2022/01/01 04:20:08;;;;;;;0.00;0.00;;;12.50;99.90;;;;;;4930236;29;20215;-68
2022/01/01 04:22:36;;;;;;;0.00;0.00;;;12.50;99.90;;;;;;4925981;29;20227;-68
2022/01/01 04:25:04;;;;;;;0.00;0.00;;;12.50;99.90;;;;;;4926457;29;20294;-68
2022/01/01 04:27:31;;;;;;;0.00;0.00;;;12.50;99.90;;;;;;4926536;29;20239;-68
2022/01/01 04:29:58;;;;;;;0.10;0.10;;;12.50;99.90;;;;;;4927901;29;20201;-69
2022/01/01 04:32:25;;;;;;;0.00;0.00;;;12.50;99.90;;;;;;4927512;29;20219;-69
2022/01/01 04:34:52;;;;;;;0.00;0.00;;;12.50;99.90;;;;;;4927435;29;20227;-69
2022/01/01 04:37:20;;;;;;;0.00;0.00;;;12.50;99.90;;;;;;4922506;29;20211;-69
2022/01/01 04:39:52;;;;;;;0.00;0.00;;;12.50;99.90;;;;;;4932179;28;20241;-69
2022/01/01 04:42:19;;;;;;;0.00;0.00;;;12.50;99.90;;;;;;4926543;29;20227;-69
2022/01/01 04:44:46;;;;;;;0.00;0.00;;;12.40;99.90;;;;;;4928930;29;20673;-69
2022/01/01 04:47:13;;;;;;;0.00;0.00;;;12.40;99.90;;;;;;4928115;29;20206;-69
2022/01/01 04:49:40;;;;;;;0.00;0.00;;;12.40;99.90;;;;;;4949170;28;20572;-69
2022/01/01 04:52:07;;;;;;;0.00;0.00;;;12.40;99.90;;;;;;4929016;29;20219;-68
2022/01/01 04:54:39;;;;;;;0.00;0.00;;;12.40;99.90;;;;;;4943260;28;20263;-69
2022/01/01 04:57:08;;;;;;;0.00;0.00;;;12.40;99.90;;;;;;4930179;28;20195;-68
2022/01/01 04:59:36;;;;;;;0.00;0.00;;;12.40;99.90;;;;;;4924654;29;20239;-68
2022/01/01 05:02:04;;;;;;;0.00;0.00;;;12.40;99.90;;;;;;4922142;29;20734;-69
2022/01/01 05:04:31;;;;;;;0.00;0.00;;;12.40;99.90;;;;;;4928974;29;20196;-69
2022/01/01 05:06:58;;;;;;;0.00;0.00;;;12.40;99.90;;;;;;4926890;29;20246;-68
2022/01/01 05:09:27;;;;;;;0.00;0.00;;;12.40;99.90;;;;;;4927844;29;20258;-68
2022/01/01 05:11:55;;;;;;;0.00;0.00;;;12.40;99.90;;;;;;4925275;29;20234;-68
2022/01/01 05:14:23;;;;;;;0.00;0.00;;;12.40;99.90;;;;;;4927406;29;20215;-68
2022/01/01 05:16:51;;;;;;;0.00;0.00;;;12.40;99.90;;;;;;4926557;29;20227;-69
2022/01/01 05:19:19;;;;;;;0.00;0.00;;;12.40;99.90;;;;;;4925716;29;20206;-69
2022/01/01 05:21:47;;;;;;;0.00;0.00;;;12.40;99.90;;;;;;4926375;29;20230;-68
2022/01/01 05:24:18;;;;;;;0.00;0.00;;;12.40;99.90;;;;;;4927892;29;20211;-69
2022/01/01 05:26:45;;;;;;;0.00;0.00;;;12.40;99.90;;;;;;4921753;29;20208;-69
2022/01/01 05:29:12;;;;;;;0.00;0.00;;;12.40;99.90;;;;;;4929973;29;20285;-69
2022/01/01 05:31:40;;;;;;;0.00;0.00;;;12.40;99.90;;;;;;4930612;29;20223;-68
2022/01/01 05:34:07;;;;;;;0.00;0.00;;;12.40;99.90;;;;;;4930325;29;20199;-68
2022/01/01 05:36:34;;;;;;;0.00;0.00;;;12.40;99.90;;;;;;4933312;29;20223;-68
2022/01/01 05:39:01;;;;;;;0.00;0.00;;;12.40;99.90;;;;;;4930816;29;20203;-69
2022/01/01 05:41:28;;;;;;;0.03;0.03;;;12.40;99.90;;;;;;4931889;29;20261;-69
2022/01/01 05:43:55;;;;;;;0.00;0.00;;;12.40;99.90;;;;;;4931469;29;20204;-68
2022/01/01 05:46:23;;;;;;;0.00;0.00;;;12.40;99.90;;;;;;4930749;29;20258;-68
2022/01/01 05:48:51;;;;;;;0.00;0.00;;;12.40;99.90;;;;;;4932069;29;20219;-69
2022/01/01 05:51:18;;;;;;;0.00;0.00;;;12.40;99.90;;;;;;4930111;29;20322;-68
2022/01/01 05:53:45;;;;;;;0.00;0.00;;;12.30;99.90;;;;;;4927990;29;20203;-68
2022/01/01 05:56:12;;;;;;;0.00;0.00;;;12.30;99.90;;;;;;4927585;29;20274;-68
2022/01/01 05:58:39;;;;;;;0.00;0.00;;;12.30;99.90;;;;;;4930890;29;20230;-68
2022/01/01 06:01:06;;;;;;;0.00;0.00;;;12.40;99.90;;;;;;4929567;29;20299;-69
2022/01/01 06:03:33;;;;;;;0.00;0.00;;;12.40;99.90;;;;;;4932089;29;20203;-69
2022/01/01 06:06:01;;;;;;;0.00;0.00;;;12.40;99.90;;;;;;4929891;29;20200;-68
2022/01/01 06:08:29;;;;;;;0.00;0.00;;;12.30;99.90;;;;;;4927507;29;20204;-69
2022/01/01 06:10:56;;;;;;;0.00;0.00;;;12.40;99.90;;;;;;4930754;29;20663;-69
2022/01/01 06:13:23;;;;;;;0.00;0.00;;;12.30;99.90;;;;;;4926888;29;20237;-69
2022/01/01 06:15:50;;;;;;;0.00;0.00;;;12.30;99.90;;;;;;4931907;29;20219;-68
2022/01/01 06:18:16;;;;;;;0.00;0.00;;;12.30;99.90;;;;;;4928615;29;20203;-69
2022/01/01 06:20:44;;;;;;;0.00;0.00;;;12.30;99.90;;;;;;4933333;29;20296;-69
2022/01/01 06:23:12;;;;;;;0.00;0.00;;;12.30;99.90;;;;;;4929487;29;20362;-69
2022/01/01 06:25:39;;;;;;;0.00;0.00;;;12.30;99.90;;;;;;4935082;28;20282;-68
2022/01/01 06:28:06;;;;;;;0.00;0.00;;;12.30;99.90;;;;;;4927957;29;20693;-69
2022/01/01 06:30:34;;;;;;;0.00;0.00;;;12.30;99.90;;;;;;4926609;29;20232;-69
2022/01/01 06:33:02;;;;;;;0.00;0.00;;;12.30;99.90;;;;;;4929408;29;20203;-69
2022/01/01 06:35:29;;;;;;;0.00;0.00;;;12.30;99.90;;;;;;4929976;29;20231;-69
2022/01/01 06:37:56;;;;;;;0.00;0.00;;;12.30;99.90;;;;;;4929890;29;20214;-69
2022/01/01 06:40:24;;;;;;;0.00;0.00;;;12.30;99.90;;;;;;4928524;29;20217;-69
2022/01/01 06:42:51;;;;;;;0.00;0.00;;;12.30;99.90;;;;;;4931189;29;20322;-68
2022/01/01 06:45:18;;;;;;;0.00;0.00;;;12.30;99.90;;;;;;4928681;29;20199;-69
2022/01/01 06:47:45;;;;;;;0.00;0.00;;;12.30;99.90;;;;;;4929526;29;20241;-68
2022/01/01 06:50:12;;;;;;;0.00;0.00;;;12.30;99.90;;;;;;4932485;29;20203;-69
2022/01/01 06:52:44;;;;;;;0.07;0.07;;;12.40;99.90;;;;;;4925767;29;20228;-68
2022/01/01 06:55:12;;;;;;;0.00;0.00;;;12.40;99.90;;;;;;4928182;29;20207;-68
2022/01/01 06:57:40;;;;;;;0.00;0.00;;;12.40;99.90;;;;;;4927232;29;20214;-67
2022/01/01 07:00:09;;;;;;;0.00;0.00;;;12.40;99.90;;;;;;4925254;29;20300;-68
2022/01/01 07:02:39;;;;;;;0.00;0.00;;;12.40;99.90;;;;;;4927965;29;20250;-68
2022/01/01 07:05:07;;;;;;;0.00;0.00;;;12.40;99.90;;;;;;4932896;29;20213;-68
2022/01/01 07:07:35;;;;;;;0.00;0.00;;;12.40;99.90;;;;;;4929055;29;20298;-67
2022/01/01 07:10:03;;;;;;;0.00;0.00;;;12.30;99.90;;;;;;4929189;29;20238;-68
2022/01/01 07:12:30;;;;;;;0.00;0.00;;;12.30;99.90;;;;;;4932804;29;20247;-67
2022/01/01 07:14:58;;;;;;;0.00;0.00;;;12.30;99.90;;;;;;4926861;29;20275;-68
2022/01/01 07:17:25;;;;;;;0.00;0.00;;;12.30;99.90;;;;;;4927507;29;20216;-69
2022/01/01 07:19:52;;;;;;;0.00;0.00;;;12.30;99.90;;;;;;4928972;29;20247;-69
2022/01/01 07:22:20;;;;;;;0.00;0.00;;;12.30;99.90;;;;;;4929370;29;20230;-69
2022/01/01 07:24:49;;;;;;;0.03;0.03;;;12.30;99.90;;;;;;4930373;29;20211;-68
2022/01/01 07:27:16;;;;;;;0.10;0.10;;;12.30;99.90;;;;;;4932124;28;20196;-69
2022/01/01 07:29:44;;;;;;;0.00;0.00;;;12.30;99.90;;;;;;4932124;29;20298;-69
2022/01/01 07:32:12;;;;;;;0.00;0.00;;;12.30;99.90;;;;;;4928362;29;20247;-69
2022/01/01 07:34:39;;;;;;;0.00;0.00;;;12.30;99.90;;;;;;4925872;29;20203;-69
2022/01/01 07:37:06;;;;;;;0.00;0.00;;;12.30;99.90;;;;;;4925810;29;20247;-69
2022/01/01 07:39:33;;;;;;;0.00;0.00;;;12.30;99.90;;;;;;4928858;29;20218;-68
2022/01/01 07:42:00;;;;;;;0.00;0.00;;;12.30;99.90;;;;;;4926551;29;20357;-68
2022/01/01 07:44:26;;;;;;;0.07;0.07;;;12.30;99.90;;;;;;4928686;29;20286;-68
2022/01/01 07:46:55;;;;;;;0.00;0.00;;;12.30;99.90;;;;;;4932828;29;20288;-69
2022/01/01 07:49:24;;;;;;;0.00;0.00;;;12.30;99.90;;;;;;4929060;29;20219;-68
2022/01/01 07:51:51;;;;;;;0.00;0.00;;;12.30;99.90;;;;;;4926106;29;20259;-68
2022/01/01 07:54:18;;;;;;;0.00;0.00;;;12.30;99.90;;;;;;4925539;29;20218;-68
2022/01/01 07:56:45;;;;;;;0.00;0.00;;;12.30;99.90;;;;;;4927042;29;20227;-68
2022/01/01 07:59:12;;;;;;;0.00;0.00;;;12.30;99.90;;;;;;4927897;29;20255;-68
2022/01/01 08:01:40;;;;;;;0.00;0.00;;;12.30;99.90;;;;;;4927941;29;20230;-68
2022/01/01 08:04:07;;;;;;;0.00;0.00;;;12.30;99.90;;;;;;4928404;29;20207;-68
2022/01/01 08:06:36;;;;;;;0.00;0.00;;;12.40;99.90;;;;;;4922558;29;20223;-69
2022/01/01 08:09:03;;;;;;;0.00;0.00;;;12.40;99.90;;;;;;4928680;29;20241;-69
2022/01/01 08:11:31;;;;;;;0.00;0.00;;;12.40;99.90;;;;;;4922494;29;20232;-69
2022/01/01 08:13:58;;;;;;;0.00;0.00;;;12.40;99.90;;;;;;4928852;29;20210;-69
2022/01/01 08:16:26;;;;;;;0.00;0.00;;;12.40;99.90;;;;;;4928028;29;20227;-68
2022/01/01 08:18:53;;;;;;;0.00;0.00;;;12.40;99.90;;;;;;4924661;29;20213;-69
2022/01/01 08:21:20;;;;;;;0.00;0.00;;;12.40;99.90;;;;;;4927947;29;20219;-68
2022/01/01 08:23:48;;;;;;;0.00;0.00;;;12.40;99.90;;;;;;4928142;29;20395;-68
2022/01/01 08:26:15;;;;;;;0.00;0.00;;;12.40;99.90;;;;;;4927106;29;20266;-67
2022/01/01 08:28:42;;;;;;;0.00;0.00;;;12.40;99.90;;;;;;4928884;29;20222;-68
2022/01/01 08:31:09;;;;;;;0.00;0.00;;;12.40;99.90;;;;;;4930674;29;20226;-69
2022/01/01 08:33:37;;;;;;;0.00;0.00;;;12.40;99.90;;;;;;4929494;29;20208;-69
2022/01/01 08:36:05;;;;;;;0.00;0.00;;;12.40;99.90;;;;;;4926162;29;20215;-67
2022/01/01 08:38:33;;;;;;;0.00;0.00;;;12.50;99.90;;;;;;4925113;29;20211;-69
2022/01/01 08:41:06;;;;;;;0.00;0.00;;;12.50;99.90;;;;;;4928188;28;20226;-69
2022/01/01 08:43:45;;;;;;;0.00;0.00;;;12.50;99.90;;;;;;4930272;29;20227;-69
2022/01/01 08:46:16;;;;;;;0.00;0.00;;;12.50;99.90;;;;;;4926767;29;20199;-67
2022/01/01 08:48:45;;;;;;;0.00;0.00;;;12.50;99.90;;;;;;4927390;29;20222;-68
2022/01/01 08:51:20;;;;;;;0.00;0.00;;;12.50;99.90;;;;;;4930886;29;20225;-71
2022/01/01 08:53:50;;;;;;;0.00;0.00;;;12.50;99.90;;;;;;4932558;29;20261;-72
2022/01/01 08:56:19;;;;;;;0.00;0.00;;;12.50;99.90;;;;;;4927023;29;20215;-69
2022/01/01 08:58:47;;;;;;;0.00;0.00;;;12.50;99.90;;;;;;4927433;29;20207;-69
2022/01/01 09:01:14;;;;;;;0.00;0.00;;;12.50;99.90;;;;;;4921230;29;20795;-69
2022/01/01 09:03:42;;;;;;;0.10;0.10;;;12.60;99.90;;;;;;4927122;29;20195;-70
2022/01/01 09:06:10;;;;;;;0.07;0.07;;;12.50;99.90;;;;;;4926643;29;20244;-69
2022/01/01 09:08:39;;;;;;;0.00;0.00;;;12.60;99.90;;;;;;4926078;29;20202;-69
2022/01/01 09:11:07;;;;;;;0.00;0.00;;;12.60;99.90;;;;;;4928919;29;20223;-69
2022/01/01 09:13:41;;;;;;;0.00;0.00;;;12.60;99.90;;;;;;4927039;29;20660;-69
2022/01/01 09:16:08;;;;;;;0.00;0.00;;;12.60;99.90;;;;;;4930877;29;20214;-69
2022/01/01 09:18:35;;;;;;;0.00;0.00;;;12.70;99.90;;;;;;4924439;29;20210;-69
2022/01/01 09:21:02;;;;;;;0.00;0.00;;;12.70;99.90;;;;;;4929019;29;20776;-70
2022/01/01 09:23:29;;;;;;;0.10;0.10;;;12.70;99.90;;;;;;4926358;29;20302;-70
2022/01/01 09:25:56;;;;;;;0.00;0.00;;;12.70;99.90;;;;;;4929284;29;20211;-70
2022/01/01 09:28:24;;;;;;;0.00;0.00;;;12.80;99.90;;;;;;4929364;29;20208;-70
2022/01/01 09:30:53;;;;;;;0.00;0.00;;;12.80;99.90;;;;;;4927422;29;20216;-70
2022/01/01 09:33:20;;;;;;;0.00;0.00;;;12.80;99.90;;;;;;4938335;29;20274;-72
2022/01/01 09:35:48;;;;;;;0.00;0.00;;;12.80;99.90;;;;;;4923394;29;20210;-70
2022/01/01 09:38:16;;;;;;;0.00;0.00;;;12.90;99.90;;;;;;4927089;29;20227;-70
2022/01/01 09:40:44;;;;;;;0.00;0.00;;;12.90;99.90;;;;;;4930967;29;20241;-70
2022/01/01 09:43:14;;;;;;;0.00;0.00;;;12.90;99.90;;;;;;4930259;29;20203;-70
2022/01/01 09:45:42;;;;;;;0.00;0.00;;;13.00;99.90;;;;;;4934920;28;20202;-70
2022/01/01 09:48:10;;;;;;;0.00;0.00;;;12.90;99.90;;;;;;4928231;29;20231;-70
2022/01/01 09:50:38;;;;;;;0.00;0.00;;;13.00;99.90;;;;;;4931158;29;20211;-71
2022/01/01 09:53:06;;;;;;;0.00;0.00;;;13.00;99.90;;;;;;4931589;29;20218;-70
2022/01/01 09:55:38;;;;;;;0.00;0.00;;;13.00;99.90;;;;;;4926840;29;20208;-71
2022/01/01 09:58:05;;;;;;;0.00;0.00;;;13.00;99.90;;;;;;4928668;29;20219;-70
2022/01/01 10:00:33;;;;;;;0.00;0.00;;;13.10;99.90;;;;;;4928066;29;20218;-70
2022/01/01 10:03:01;;;;;;;0.00;0.00;;;13.10;99.90;;;;;;4931166;28;20203;-71
2022/01/01 10:05:29;;;;;;;0.00;0.00;;;13.20;99.90;;;;;;4926795;29;20242;-70
2022/01/01 10:08:01;;;;;;;0.00;0.00;;;13.20;99.90;;;;;;4930843;29;20203;-70
2022/01/01 10:10:29;;;;;;;0.00;0.00;;;13.20;99.90;;;;;;4927696;29;20200;-70
2022/01/01 10:12:57;;;;;;;0.00;0.00;;;13.30;99.90;;;;;;4932416;29;20298;-70
2022/01/01 10:15:24;;;;;;;0.00;0.00;;;13.30;99.90;;;;;;4933533;29;20211;-70
2022/01/01 10:17:53;;;;;;;0.00;0.00;;;13.30;99.90;;;;;;4933273;29;20231;-70
2022/01/01 10:20:20;;;;;;;0.00;0.00;;;13.30;99.90;;;;;;4931507;29;20223;-70
2022/01/01 10:22:52;;;;;;;0.00;0.00;;;13.30;99.90;;;;;;4933968;29;20215;-70
2022/01/01 10:28:08;;;;;;;0.00;0.00;;;13.40;99.90;;;;;;4934406;29;20203;-70
2022/01/01 10:30:40;;;;;;;0.00;0.00;;;13.40;99.90;;;;;;4928589;29;20213;-69
2022/01/01 10:33:12;;;;;;;0.00;0.00;;;13.40;99.90;;;;;;4932018;29;20210;-69
2022/01/01 10:35:43;;;;;;;0.00;0.00;;;13.40;99.90;;;;;;4928124;29;20748;-70
2022/01/01 10:38:15;;;;;;;0.00;0.00;;;13.40;99.90;;;;;;4926878;29;20259;-69
2022/01/01 10:41:07;;;;;;;0.00;0.00;;;13.40;99.90;;;;;;4931153;29;20230;-70
2022/01/01 10:43:38;;;;;;;0.00;0.00;;;13.40;99.90;;;;;;4931209;29;20211;-69
2022/01/01 10:46:08;;;;;;;0.00;0.00;;;13.40;99.90;;;;;;4930369;29;20222;-70
2022/01/01 10:48:43;;;;;;;0.00;0.00;;;13.40;99.90;;;;;;4926164;29;20259;-70
2022/01/01 10:51:12;;;;;;;0.00;0.00;;;13.40;99.90;;;;;;4930188;29;20222;-69
2022/01/01 10:53:41;;;;;;;0.00;0.00;;;13.40;99.90;;;;;;4930271;29;20203;-70
2022/01/01 10:56:18;;;;;;;0.00;0.00;;;13.40;99.90;;;;;;4938487;28;20211;-70
2022/01/01 10:59:02;;;;;;;0.00;0.00;;;13.50;99.90;;;;;;4932337;29;20273;-70
2022/01/01 11:01:32;;;;;;;0.00;0.00;;;13.50;99.90;;;;;;4948041;28;20242;-69
2022/01/01 11:04:01;;;;;;;0.00;0.00;;;13.50;99.90;;;;;;4930761;29;20204;-69
2022/01/01 11:06:33;;;;;;;0.00;0.00;;;13.50;99.90;;;;;;4933693;29;20207;-69
2022/01/01 11:09:02;;;;;;;0.00;0.00;;;13.60;99.90;;;;;;4932761;29;20203;-69
2022/01/01 11:11:31;;;;;;;0.00;0.00;;;13.60;99.90;;;;;;4932874;29;20210;-69
2022/01/01 11:14:00;;;;;;;0.00;0.00;;;13.70;99.90;;;;;;4944758;28;20207;-69
2022/01/01 11:16:27;;;;;;;0.00;0.00;;;13.70;99.90;;;;;;4929306;29;20214;-69
2022/01/01 11:18:55;;;;;;;0.10;0.10;;;13.70;99.90;;;;;;4933463;29;20243;-69
2022/01/01 11:21:23;;;;;;;0.00;0.00;;;13.70;99.90;;;;;;4932397;29;20230;-69
2022/01/01 11:23:52;;;;;;;0.00;0.00;;;13.70;99.90;;;;;;4933554;29;20229;-69
2022/01/01 11:26:24;;;;;;;0.10;0.10;;;13.70;99.90;;;;;;4928106;29;20200;-69
2022/01/01 11:28:51;;;;;;;0.00;0.00;;;13.80;99.90;;;;;;4932031;29;20302;-69
2022/01/01 11:31:21;;;;;;;0.00;0.00;;;13.80;99.90;;;;;;4931367;29;20323;-70
2022/01/01 11:34:00;;;;;;;0.00;0.00;;;13.80;99.90;;;;;;4934533;29;20203;-68
2022/01/01 11:36:31;;;;;;;0.00;0.00;;;13.90;99.90;;;;;;4940107;28;20206;-67
2022/01/01 11:39:07;;;;;;;0.00;0.00;;;13.90;99.90;;;;;;4934200;29;20302;-68
2022/01/01 11:41:43;;;;;;;0.00;0.00;;;14.00;99.90;;;;;;4931526;29;20233;-68
2022/01/01 11:44:30;;;;;;;0.00;0.00;;;14.10;99.90;;;;;;4932063;29;20254;-68
2022/01/01 11:47:04;;;;;;;0.03;0.03;;;14.10;99.90;;;;;;4933263;29;20286;-69
2022/01/01 11:49:33;;;;;;;0.00;0.00;;;14.10;99.90;;;;;;4926969;29;20205;-68
2022/01/01 11:52:04;;;;;;;0.00;0.00;;;14.10;99.90;;;;;;4928950;29;20258;-68
2022/01/01 11:54:33;;;;;;;0.00;0.00;;;14.10;99.90;;;;;;4930452;29;20195;-68
2022/01/01 11:57:11;;;;;;;0.00;0.00;;;14.10;99.90;;;;;;4927871;29;20214;-68
2022/01/01 11:59:51;;;;;;;0.00;0.00;;;14.10;99.90;;;;;;4925591;29;20239;-68
2022/01/01 12:02:49;;;;;;;0.00;0.00;;;14.10;99.90;;;;;;4929023;29;20230;-68
2022/01/01 12:05:19;;;;;;;0.00;0.00;;;14.20;99.90;;;;;;4912710;28;20216;-68
2022/01/01 12:07:55;;;;;;;0.00;0.00;;;14.10;99.90;;;;;;4929684;29;20211;-68
2022/01/01 12:10:28;;;;;;;0.00;0.00;;;14.10;99.90;;;;;;4930585;29;20266;-68
2022/01/01 12:12:59;;;;;;;0.00;0.00;;;14.20;99.90;;;;;;4932341;29;20209;-68
2022/01/01 12:15:35;;;;;;;0.00;0.00;;;14.10;99.90;;;;;;4929825;29;20231;-68
2022/01/01 12:18:05;;;;;;;0.00;0.00;;;14.10;99.90;;;;;;4928717;29;20225;-69
2022/01/01 12:20:35;;;;;;;0.00;0.00;;;14.10;99.90;;;;;;4929487;29;20336;-68
2022/01/01 12:23:05;;;;;;;0.00;0.00;;;14.10;99.90;;;;;;4926085;29;20260;-68
2022/01/01 12:25:37;;;;;;;0.00;0.00;;;14.10;99.90;;;;;;4926493;29;20211;-69
2022/01/01 12:28:08;;;;;;;0.00;0.00;;;14.00;99.90;;;;;;4927303;29;20295;-69
2022/01/01 12:30:39;;;;;;;0.00;0.00;;;14.00;99.90;;;;;;4930027;29;20271;-69
2022/01/01 12:33:07;;;;;;;0.00;0.00;;;14.00;99.90;;;;;;4928995;29;20207;-69
2022/01/01 12:35:46;;;;;;;0.00;0.00;;;14.00;99.90;;;;;;4929507;29;20206;-69
2022/01/01 12:38:16;;;;;;;0.00;0.00;;;14.00;99.90;;;;;;4942615;28;20227;-69
2022/01/01 12:41:08;;;;;;;0.00;0.00;;;14.00;99.90;;;;;;4931156;29;20391;-69
2022/01/01 12:43:43;;;;;;;0.00;0.00;;;14.00;99.90;;;;;;4931364;29;20199;-69
2022/01/01 12:46:13;;;;;;;0.00;0.00;;;13.90;99.90;;;;;;4928753;29;20210;-69
2022/01/01 12:48:41;;;;;;;0.00;0.00;;;13.90;99.90;;;;;;4930463;29;20191;-69
2022/01/01 12:51:12;;;;;;;0.00;0.00;;;13.90;99.90;;;;;;4929786;29;20211;-69
2022/01/01 12:53:41;;;;;;;0.00;0.00;;;14.00;99.90;;;;;;4925957;29;20218;-69
2022/01/01 12:56:10;;;;;;;0.00;0.00;;;14.00;99.90;;;;;;4929549;29;20712;-69
2022/01/01 12:58:42;;;;;;;0.00;0.00;;;14.00;99.90;;;;;;4928692;29;20247;-69